createdAt,value
2023-03-19T00:00:32.244Z,100.00
2023-03-19T00:03:00.442Z,100.00
2023-03-19T00:05:27.852Z,100.00
2023-03-19T00:07:55.076Z,100.00
2023-03-19T00:10:22.494Z,100.00
2023-03-19T00:12:50.033Z,100.00
2023-03-19T00:15:23.558Z,100.00
2023-03-19T00:17:51.655Z,100.00
2023-03-19T00:20:20.370Z,100.00
2023-03-19T00:22:49.101Z,100.00
2023-03-19T00:25:16.603Z,100.00
2023-03-19T00:27:44.613Z,100.00
2023-03-19T00:30:12.332Z,100.00
2023-03-19T00:32:40.999Z,100.00
2023-03-19T00:35:09.157Z,100.00
2023-03-19T00:37:37.438Z,100.00
2023-03-19T00:40:08.063Z,100.00
2023-03-19T00:42:35.623Z,100.00
2023-03-19T00:45:03.250Z,100.00
2023-03-19T00:47:30.843Z,100.00
2023-03-19T00:49:58.374Z,100.00
2023-03-19T00:52:27.130Z,100.00
2023-03-19T00:54:54.442Z,100.00
2023-03-19T00:57:22.281Z,100.00
2023-03-19T00:59:49.760Z,100.00
2023-03-19T01:02:17.301Z,100.00
2023-03-19T01:04:45.362Z,100.00
2023-03-19T01:07:12.839Z,100.00
2023-03-19T01:09:41.174Z,100.00
2023-03-19T01:12:08.750Z,100.00
2023-03-19T01:14:36.351Z,100.00
2023-03-19T01:17:03.630Z,100.00
2023-03-19T01:19:31.025Z,100.00
2023-03-19T01:21:58.316Z,100.00
2023-03-19T01:24:29.866Z,100.00
2023-03-19T01:26:57.111Z,100.00
2023-03-19T01:29:24.638Z,100.00
2023-03-19T01:31:53.548Z,100.00
2023-03-19T01:34:21.075Z,100.00
2023-03-19T01:36:49.113Z,100.00
2023-03-19T01:39:16.340Z,100.00
2023-03-19T01:41:43.870Z,100.00
2023-03-19T01:44:28.464Z,100.00
2023-03-19T01:46:55.966Z,100.00
2023-03-19T01:49:23.856Z,100.00
2023-03-19T01:51:51.422Z,100.00
2023-03-19T01:54:21.962Z,100.00
2023-03-19T01:56:52.025Z,100.00
2023-03-19T01:59:22.948Z,100.00
2023-03-19T02:02:00.664Z,100.00
2023-03-19T02:04:28.102Z,100.00
2023-03-19T02:06:55.958Z,100.00
2023-03-19T02:09:27.853Z,100.00
2023-03-19T02:11:55.253Z,100.00
2023-03-19T02:14:23.050Z,100.00
2023-03-19T02:16:51.594Z,100.00
2023-03-19T02:19:34.056Z,100.00
2023-03-19T02:22:04.388Z,100.00
2023-03-19T02:24:57.951Z,100.00
2023-03-19T02:27:25.291Z,100.00
2023-03-19T02:29:52.583Z,100.00
2023-03-19T02:32:19.795Z,100.00
2023-03-19T02:34:50.515Z,100.00
2023-03-19T02:37:35.875Z,100.00
2023-03-19T02:40:07.957Z,100.00
2023-03-19T02:42:36.440Z,100.00
2023-03-19T02:45:04.407Z,100.00
2023-03-19T02:47:31.895Z,100.00
2023-03-19T02:49:59.874Z,100.00
2023-03-19T02:52:27.238Z,100.00
2023-03-19T02:54:54.503Z,100.00
2023-03-19T02:57:21.768Z,100.00
2023-03-19T02:59:53.459Z,100.00
2023-03-19T03:02:20.719Z,100.00
2023-03-19T03:04:48.731Z,100.00
2023-03-19T03:07:22.079Z,100.00
2023-03-19T03:09:49.466Z,100.00
2023-03-19T03:12:16.748Z,100.00
2023-03-19T03:14:45.896Z,100.00
2023-03-19T03:17:14.421Z,100.00
2023-03-19T03:19:42.060Z,100.00
2023-03-19T03:22:09.505Z,100.00
2023-03-19T03:24:36.983Z,100.00
2023-03-19T03:27:04.353Z,100.00
2023-03-19T03:29:32.428Z,100.00
2023-03-19T03:31:59.887Z,100.00
2023-03-19T03:34:27.623Z,100.00
2023-03-19T03:36:55.205Z,100.00
2023-03-19T03:39:23.110Z,100.00
2023-03-19T03:41:50.396Z,100.00
2023-03-19T03:44:18.242Z,100.00
2023-03-19T03:46:49.393Z,100.00
2023-03-19T03:49:16.920Z,100.00
2023-03-19T03:51:44.155Z,100.00
2023-03-19T03:54:12.421Z,100.00
2023-03-19T03:56:39.920Z,100.00
2023-03-19T03:59:07.705Z,100.00
2023-03-19T04:01:35.071Z,100.00
2023-03-19T04:04:02.777Z,100.00
2023-03-19T04:06:30.550Z,100.00
2023-03-19T04:08:57.962Z,100.00
2023-03-19T04:11:25.159Z,100.00
2023-03-19T04:13:55.206Z,100.00
2023-03-19T04:16:22.504Z,100.00
2023-03-19T04:18:49.795Z,100.00
2023-03-19T04:21:22.552Z,100.00
2023-03-19T04:23:50.358Z,100.00
2023-03-19T04:26:17.863Z,100.00
2023-03-19T04:28:50.847Z,100.00
2023-03-19T04:31:18.400Z,100.00
2023-03-19T04:33:45.774Z,100.00
2023-03-19T04:36:13.357Z,100.00
2023-03-19T04:38:41.618Z,100.00
2023-03-19T04:41:11.401Z,100.00
2023-03-19T04:43:38.688Z,100.00
2023-03-19T04:46:08.118Z,100.00
2023-03-19T04:48:37.810Z,100.00
2023-03-19T04:51:05.347Z,100.00
2023-03-19T04:53:36.250Z,100.00
2023-03-19T04:56:04.493Z,100.00
2023-03-19T04:58:31.768Z,100.00
2023-03-19T05:01:00.027Z,100.00
2023-03-19T05:03:27.717Z,100.00
2023-03-19T05:05:57.237Z,100.00
2023-03-19T05:08:24.791Z,100.00
2023-03-19T05:10:52.001Z,100.00
2023-03-19T05:13:21.636Z,100.00
2023-03-19T05:15:53.176Z,100.00
2023-03-19T05:18:20.492Z,100.00
2023-03-19T05:20:51.640Z,100.00
2023-03-19T05:23:18.980Z,100.00
2023-03-19T05:25:46.481Z,100.00
2023-03-19T05:28:14.109Z,100.00
2023-03-19T05:30:41.469Z,100.00
2023-03-19T05:33:13.129Z,100.00
2023-03-19T05:35:40.635Z,100.00
2023-03-19T05:38:08.326Z,100.00
2023-03-19T05:40:36.296Z,100.00
2023-03-19T05:43:03.827Z,100.00
2023-03-19T05:45:31.076Z,100.00
2023-03-19T05:47:58.857Z,100.00
2023-03-19T05:50:26.262Z,100.00
2023-03-19T05:52:53.651Z,100.00
2023-03-19T05:55:21.119Z,100.00
2023-03-19T05:57:48.357Z,100.00
2023-03-19T06:00:16.402Z,100.00
2023-03-19T06:02:44.250Z,100.00
2023-03-19T06:05:12.743Z,100.00
2023-03-19T06:07:41.028Z,100.00
2023-03-19T06:10:09.355Z,100.00
2023-03-19T06:12:37.051Z,100.00
2023-03-19T06:15:04.723Z,100.00
2023-03-19T06:17:37.194Z,100.00
2023-03-19T06:20:04.744Z,100.00
2023-03-19T06:22:32.313Z,100.00
2023-03-19T06:24:59.618Z,100.00
2023-03-19T06:27:27.166Z,100.00
2023-03-19T06:29:55.459Z,100.00
2023-03-19T06:32:25.769Z,100.00
2023-03-19T06:34:53.384Z,100.00
2023-03-19T06:37:20.689Z,100.00
2023-03-19T06:39:49.475Z,100.00
2023-03-19T06:42:17.133Z,100.00
2023-03-19T06:44:46.501Z,100.00
2023-03-19T06:47:14.355Z,100.00
2023-03-19T06:49:41.729Z,100.00
2023-03-19T06:52:10.375Z,100.00
2023-03-19T06:54:38.518Z,100.00
2023-03-19T06:57:06.037Z,100.00
2023-03-19T06:59:36.453Z,100.00
2023-03-19T07:02:03.817Z,100.00
2023-03-19T07:04:31.213Z,100.00
2023-03-19T07:06:58.559Z,100.00
2023-03-19T07:09:27.308Z,100.00
2023-03-19T07:11:58.046Z,100.00
2023-03-19T07:14:26.282Z,100.00
2023-03-19T07:16:53.505Z,100.00
2023-03-19T07:19:25.727Z,100.00
2023-03-19T07:21:52.976Z,100.00
2023-03-19T07:24:20.436Z,100.00
2023-03-19T07:26:48.158Z,100.00
2023-03-19T07:29:17.817Z,100.00
2023-03-19T07:31:45.195Z,100.00
2023-03-19T07:34:14.870Z,100.00
2023-03-19T07:36:42.207Z,100.00
2023-03-19T07:39:10.040Z,100.00
2023-03-19T07:41:37.355Z,100.00
2023-03-19T07:44:04.663Z,100.00
2023-03-19T07:46:34.133Z,100.00
2023-03-19T07:49:01.454Z,100.00
2023-03-19T07:51:28.825Z,99.95
2023-03-19T07:53:57.967Z,100.00
2023-03-19T07:56:25.205Z,100.00
2023-03-19T07:58:52.855Z,100.00
2023-03-19T08:01:20.133Z,100.00
2023-03-19T08:03:48.732Z,100.00
2023-03-19T08:06:15.992Z,99.02
2023-03-19T08:08:46.827Z,99.79
2023-03-19T08:11:14.166Z,99.10
2023-03-19T08:13:42.876Z,97.96
2023-03-19T08:16:13.588Z,98.34
2023-03-19T08:18:42.481Z,97.40
2023-03-19T08:21:09.728Z,98.25
2023-03-19T08:23:39.179Z,98.23
2023-03-19T08:26:06.491Z,98.28
2023-03-19T08:28:33.978Z,98.85
2023-03-19T08:31:11.664Z,98.04
2023-03-19T08:33:39.078Z,98.29
2023-03-19T08:36:13.300Z,97.16
2023-03-19T08:38:42.690Z,96.41
2023-03-19T08:41:12.394Z,95.82
2023-03-19T08:43:40.937Z,96.59
2023-03-19T08:46:08.201Z,95.66
2023-03-19T08:48:35.687Z,96.97
2023-03-19T08:51:05.675Z,96.41
2023-03-19T08:53:33.590Z,98.25
2023-03-19T08:56:02.780Z,97.06
2023-03-19T08:58:32.748Z,99.16
2023-03-19T09:01:03.297Z,98.20
2023-03-19T09:03:31.225Z,95.36
2023-03-19T09:06:05.256Z,96.00
2023-03-19T09:08:52.369Z,94.11
2023-03-19T09:11:23.362Z,93.76
2023-03-19T09:13:51.079Z,95.66
2023-03-19T09:16:18.697Z,95.22
2023-03-19T09:18:46.842Z,93.98
2023-03-19T09:21:14.373Z,91.64
2023-03-19T09:23:41.558Z,91.58
2023-03-19T09:26:12.152Z,91.37
2023-03-19T09:28:41.146Z,90.34
2023-03-19T09:31:11.579Z,91.59
2023-03-19T09:33:39.137Z,90.53
2023-03-19T09:36:07.011Z,89.70
2023-03-19T09:38:35.495Z,89.60
2023-03-19T09:41:14.980Z,91.52
2023-03-19T09:44:06.138Z,92.25
2023-03-19T09:46:38.936Z,92.37
2023-03-19T09:49:18.633Z,91.41
2023-03-19T09:51:54.943Z,90.73
2023-03-19T09:54:31.182Z,93.02
2023-03-19T09:56:59.451Z,91.51
2023-03-19T09:59:27.564Z,88.59
2023-03-19T10:02:22.057Z,88.07
2023-03-19T10:04:59.112Z,85.71
2023-03-19T10:07:47.683Z,83.84
2023-03-19T10:10:27.524Z,84.39
2023-03-19T10:13:24.160Z,86.53
2023-03-19T10:15:54.360Z,83.90
2023-03-19T10:18:32.836Z,82.06
2023-03-19T10:21:04.403Z,81.20
2023-03-19T10:23:37.821Z,80.25
2023-03-19T10:26:06.176Z,78.76
2023-03-19T10:28:33.400Z,76.08
2023-03-19T10:31:22.413Z,77.20
2023-03-19T10:34:00.248Z,78.61
2023-03-19T10:36:30.744Z,80.30
2023-03-19T10:38:58.334Z,79.57
2023-03-19T10:41:38.535Z,81.50
2023-03-19T10:44:07.426Z,77.58
2023-03-19T10:46:39.832Z,76.54
2023-03-19T10:49:13.715Z,78.30
2023-03-19T10:51:44.322Z,81.88
2023-03-19T10:54:27.157Z,82.71
2023-03-19T10:57:01.295Z,82.75
2023-03-19T10:59:36.560Z,84.21
2023-03-19T11:02:16.195Z,81.42
2023-03-19T11:04:43.977Z,81.98
2023-03-19T11:07:18.164Z,84.26
2023-03-19T11:09:49.545Z,83.31
2023-03-19T11:12:32.022Z,81.63
2023-03-19T11:14:59.457Z,80.92
2023-03-19T11:17:41.762Z,80.40
2023-03-19T11:20:37.721Z,79.90
2023-03-19T11:23:14.233Z,79.57
2023-03-19T11:25:46.994Z,81.55
2023-03-19T11:28:16.251Z,82.40
2023-03-19T11:31:21.701Z,81.50
2023-03-19T11:33:48.956Z,82.19
2023-03-19T11:36:31.740Z,83.19
2023-03-19T11:39:11.172Z,81.83
2023-03-19T11:42:03.994Z,81.63
2023-03-19T11:44:49.979Z,79.73
2023-03-19T11:47:37.777Z,81.38
2023-03-19T11:50:27.903Z,81.37
2023-03-19T11:53:31.922Z,82.59
2023-03-19T11:56:09.315Z,81.34
2023-03-19T11:58:41.137Z,82.46
2023-03-19T12:01:47.510Z,83.02
2023-03-19T12:04:38.011Z,82.85
2023-03-19T12:07:11.238Z,83.45
2023-03-19T12:10:00.577Z,84.13
2023-03-19T12:12:55.821Z,84.83
2023-03-19T12:15:27.809Z,86.29
2023-03-19T12:18:28.524Z,89.24
2023-03-19T12:21:14.356Z,89.17
2023-03-19T12:23:44.245Z,87.54
2023-03-19T12:26:19.733Z,88.60
2023-03-19T12:29:04.611Z,89.21
2023-03-19T12:32:07.509Z,91.13
2023-03-19T12:34:40.771Z,91.55
2023-03-19T12:37:17.277Z,89.54
2023-03-19T12:39:52.679Z,89.95
2023-03-19T12:42:19.938Z,89.39
2023-03-19T12:44:51.171Z,89.77
2023-03-19T12:47:23.652Z,88.33
2023-03-19T12:50:03.994Z,89.55
2023-03-19T12:52:38.501Z,90.59
2023-03-19T12:55:22.026Z,89.99
2023-03-19T12:57:51.267Z,90.82
2023-03-19T13:00:24.530Z,92.16
2023-03-19T13:02:56.288Z,90.37
2023-03-19T13:05:36.319Z,90.63
2023-03-19T13:08:31.485Z,90.75
2023-03-19T13:11:00.610Z,90.55
2023-03-19T13:13:56.031Z,90.84
2023-03-19T13:16:50.844Z,92.58
2023-03-19T13:19:31.770Z,91.76
2023-03-19T13:22:00.870Z,92.17
2023-03-19T13:24:30.287Z,92.96
2023-03-19T13:26:59.247Z,93.97
2023-03-19T13:29:39.346Z,91.83
2023-03-19T13:32:09.087Z,92.74
2023-03-19T13:34:37.290Z,91.55
2023-03-19T13:37:16.644Z,92.91
2023-03-19T13:39:44.135Z,93.17
2023-03-19T13:42:11.291Z,93.00
2023-03-19T13:44:49.275Z,94.95
2023-03-19T13:47:37.564Z,93.99
2023-03-19T13:50:19.886Z,95.86
2023-03-19T13:52:52.514Z,96.51
2023-03-19T13:55:26.009Z,95.97
2023-03-19T13:58:12.352Z,96.84
2023-03-19T14:00:43.077Z,96.37
2023-03-19T14:03:27.699Z,97.40
2023-03-19T14:05:56.326Z,98.18
2023-03-19T14:08:43.696Z,97.31
2023-03-19T14:11:10.997Z,98.69
2023-03-19T14:13:40.359Z,100.00
2023-03-19T14:16:18.110Z,100.00
2023-03-19T14:18:45.532Z,100.00
2023-03-19T14:21:50.920Z,100.00
2023-03-19T14:24:55.356Z,100.00
2023-03-19T14:27:18.426Z,100.00
2023-03-19T14:29:46.170Z,100.00
2023-03-19T14:32:18.069Z,100.00
2023-03-19T14:34:49.648Z,100.00
2023-03-19T14:37:34.636Z,100.00
2023-03-19T14:40:08.130Z,100.00
2023-03-19T14:42:56.529Z,100.00
2023-03-19T14:45:42.217Z,100.00
2023-03-19T14:48:31.119Z,100.00
2023-03-19T14:51:26.182Z,100.00
2023-03-19T14:54:05.538Z,100.00
2023-03-19T14:56:34.358Z,100.00
2023-03-19T14:59:06.090Z,100.00
2023-03-19T15:01:34.545Z,100.00
2023-03-19T15:04:08.071Z,100.00
2023-03-19T15:06:37.895Z,100.00
2023-03-19T15:09:22.301Z,100.00
2023-03-19T15:12:22.453Z,100.00
2023-03-19T15:15:09.747Z,100.00
2023-03-19T15:17:45.322Z,100.00
2023-03-19T15:20:21.855Z,100.00
2023-03-19T15:22:56.535Z,100.00
2023-03-19T15:25:24.203Z,100.00
2023-03-19T15:28:13.664Z,100.00
2023-03-19T15:30:54.812Z,100.00
2023-03-19T15:33:40.558Z,100.00
2023-03-19T15:36:30.238Z,100.00
2023-03-19T15:39:03.468Z,100.00
2023-03-19T15:41:32.376Z,100.00
2023-03-19T15:44:01.050Z,100.00
2023-03-19T15:46:31.432Z,100.00
2023-03-19T15:49:09.025Z,100.00
2023-03-19T15:51:36.796Z,100.00
2023-03-19T15:54:03.996Z,100.00
2023-03-19T15:56:32.421Z,100.00
2023-03-19T15:59:00.238Z,100.00
2023-03-19T16:01:32.554Z,100.00
2023-03-19T16:04:01.809Z,100.00
2023-03-19T16:06:36.155Z,100.00
2023-03-19T16:09:28.191Z,100.00
2023-03-19T16:11:56.261Z,100.00
2023-03-19T16:14:30.886Z,100.00
2023-03-19T16:17:17.899Z,100.00
2023-03-19T16:19:56.060Z,100.00
2023-03-19T16:22:32.083Z,100.00
2023-03-19T16:24:59.752Z,100.00
2023-03-19T16:27:39.425Z,100.00
2023-03-19T16:30:25.360Z,100.00
2023-03-19T16:33:03.953Z,100.00
2023-03-19T16:35:34.921Z,100.00
2023-03-19T16:38:22.196Z,100.00
2023-03-19T16:40:50.760Z,100.00
2023-03-19T16:43:25.960Z,100.00
2023-03-19T16:46:06.156Z,100.00
2023-03-19T16:48:33.580Z,100.00
2023-03-19T16:51:00.962Z,100.00
2023-03-19T16:53:31.532Z,100.00
2023-03-19T16:55:59.322Z,100.00
2023-03-19T16:58:32.180Z,100.00
2023-03-19T17:00:59.753Z,100.00
2023-03-19T17:03:30.080Z,100.00
2023-03-19T17:05:57.637Z,100.00
2023-03-19T17:08:26.232Z,100.00
2023-03-19T17:10:54.910Z,100.00
2023-03-19T17:13:29.884Z,100.00
2023-03-19T17:16:06.742Z,100.00
2023-03-19T17:18:36.523Z,100.00
2023-03-19T17:21:15.991Z,100.00
2023-03-19T17:23:44.389Z,100.00
2023-03-19T17:26:19.088Z,100.00
2023-03-19T17:28:48.520Z,100.00
2023-03-19T17:31:31.840Z,100.00
2023-03-19T17:34:06.053Z,100.00
2023-03-19T17:36:33.569Z,100.00
2023-03-19T17:39:00.882Z,100.00
2023-03-19T17:41:35.737Z,100.00
2023-03-19T17:44:06.206Z,100.00
2023-03-19T17:46:38.792Z,100.00
2023-03-19T17:49:26.188Z,100.00
2023-03-19T17:51:53.470Z,100.00
2023-03-19T17:54:21.349Z,100.00
2023-03-19T17:56:48.984Z,100.00
2023-03-19T17:59:16.240Z,100.00
2023-03-19T18:01:43.748Z,100.00
2023-03-19T18:04:13.250Z,100.00
2023-03-19T18:06:42.839Z,100.00
2023-03-19T18:09:17.074Z,100.00
2023-03-19T18:11:44.424Z,100.00
2023-03-19T18:14:12.053Z,100.00
2023-03-19T18:16:46.418Z,100.00
2023-03-19T18:19:26.452Z,100.00
2023-03-19T18:21:56.314Z,100.00
2023-03-19T18:24:24.731Z,100.00
2023-03-19T18:26:53.108Z,100.00
2023-03-19T18:29:25.055Z,100.00
2023-03-19T18:31:53.478Z,100.00
2023-03-19T18:34:21.535Z,100.00
2023-03-19T18:36:49.955Z,100.00
2023-03-19T18:39:18.147Z,100.00
2023-03-19T18:41:46.219Z,100.00
2023-03-19T18:44:14.253Z,100.00
2023-03-19T18:46:42.365Z,100.00
2023-03-19T18:49:24.777Z,100.00
2023-03-19T18:52:08.969Z,100.00
2023-03-19T18:54:36.861Z,100.00
2023-03-19T18:57:05.836Z,100.00
2023-03-19T18:59:33.432Z,100.00
2023-03-19T19:02:16.737Z,100.00
2023-03-19T19:04:44.041Z,100.00
2023-03-19T19:07:15.061Z,100.00
2023-03-19T19:09:43.252Z,100.00
2023-03-19T19:12:15.247Z,100.00
2023-03-19T19:14:44.362Z,100.00
2023-03-19T19:17:20.133Z,100.00
2023-03-19T19:19:47.792Z,100.00
2023-03-19T19:22:18.587Z,100.00
2023-03-19T19:24:46.355Z,100.00
2023-03-19T19:27:24.911Z,100.00
2023-03-19T19:29:53.144Z,100.00
2023-03-19T19:32:24.769Z,100.00
2023-03-19T19:34:52.532Z,100.00
2023-03-19T19:37:23.286Z,100.00
2023-03-19T19:39:51.213Z,100.00
2023-03-19T19:42:19.803Z,100.00
2023-03-19T19:44:53.546Z,100.00
2023-03-19T19:47:21.189Z,100.00
2023-03-19T19:49:50.298Z,100.00
2023-03-19T19:52:18.898Z,100.00
2023-03-19T19:54:46.777Z,100.00
2023-03-19T19:57:18.539Z,100.00
2023-03-19T19:59:46.043Z,100.00
2023-03-19T20:02:23.589Z,100.00
2023-03-19T20:04:50.993Z,100.00
2023-03-19T20:07:18.337Z,100.00
2023-03-19T20:09:46.542Z,100.00
2023-03-19T20:12:28.277Z,100.00
2023-03-19T20:14:55.760Z,100.00
2023-03-19T20:17:24.100Z,100.00
2023-03-19T20:19:51.410Z,100.00
2023-03-19T20:22:18.657Z,100.00
2023-03-19T20:24:50.289Z,100.00
2023-03-19T20:27:23.693Z,100.00
2023-03-19T20:29:53.695Z,100.00
2023-03-19T20:32:31.490Z,100.00
2023-03-19T20:35:01.342Z,100.00
2023-03-19T20:37:31.120Z,100.00
2023-03-19T20:39:58.446Z,100.00
2023-03-19T20:42:25.741Z,100.00
2023-03-19T20:44:55.673Z,100.00
2023-03-19T20:47:26.005Z,100.00
2023-03-19T20:49:53.471Z,100.00
2023-03-19T20:52:21.877Z,100.00
2023-03-19T20:54:49.764Z,100.00
2023-03-19T20:57:19.890Z,100.00
2023-03-19T20:59:47.860Z,100.00
2023-03-19T21:02:16.805Z,100.00
2023-03-19T21:04:44.832Z,100.00
2023-03-19T21:07:27.451Z,100.00
2023-03-19T21:09:58.165Z,100.00
2023-03-19T21:12:29.293Z,100.00
2023-03-19T21:14:57.814Z,100.00
2023-03-19T21:17:27.341Z,100.00
2023-03-19T21:19:58.373Z,100.00
2023-03-19T21:22:27.361Z,100.00
2023-03-19T21:25:06.073Z,100.00
2023-03-19T21:27:34.419Z,100.00
2023-03-19T21:30:01.969Z,100.00
2023-03-19T21:32:29.450Z,100.00
2023-03-19T21:34:57.866Z,100.00
2023-03-19T21:37:25.477Z,100.00
2023-03-19T21:39:52.771Z,100.00
2023-03-19T21:42:23.401Z,100.00
2023-03-19T21:44:54.476Z,100.00
2023-03-19T21:47:22.956Z,100.00
2023-03-19T21:49:50.253Z,100.00
2023-03-19T21:52:19.370Z,100.00
2023-03-19T21:54:46.618Z,100.00
2023-03-19T21:57:14.242Z,100.00
2023-03-19T21:59:41.556Z,100.00
2023-03-19T22:02:38.871Z,100.00
2023-03-19T22:05:26.927Z,100.00
2023-03-19T22:07:54.276Z,100.00
2023-03-19T22:10:27.099Z,100.00
2023-03-19T22:12:54.866Z,100.00
2023-03-19T22:15:34.932Z,100.00
2023-03-19T22:18:05.895Z,100.00
2023-03-19T22:20:33.470Z,100.00
2023-03-19T22:23:01.049Z,100.00
2023-03-19T22:25:31.772Z,100.00
2023-03-19T22:27:59.302Z,100.00
2023-03-19T22:30:29.855Z,100.00
2023-03-19T22:32:57.295Z,100.00
2023-03-19T22:35:24.933Z,100.00
2023-03-19T22:37:53.147Z,100.00
2023-03-19T22:40:20.968Z,100.00
2023-03-19T22:42:49.821Z,100.00
2023-03-19T22:45:20.940Z,100.00
2023-03-19T22:47:50.329Z,100.00
2023-03-19T22:50:26.676Z,100.00
2023-03-19T22:52:54.470Z,100.00
2023-03-19T22:55:21.969Z,100.00
2023-03-19T22:57:49.509Z,100.00
2023-03-19T23:00:19.544Z,100.00
2023-03-19T23:02:47.946Z,100.00
2023-03-19T23:05:27.449Z,100.00
2023-03-19T23:07:55.398Z,100.00
2023-03-19T23:10:25.648Z,100.00
2023-03-19T23:12:59.138Z,100.00
2023-03-19T23:15:27.205Z,100.00
2023-03-19T23:17:57.907Z,100.00
2023-03-19T23:20:27.114Z,100.00
2023-03-19T23:22:54.689Z,100.00
2023-03-19T23:25:27.372Z,100.00
2023-03-19T23:28:00.672Z,100.00
2023-03-19T23:30:32.015Z,100.00
2023-03-19T23:33:04.854Z,100.00
2023-03-19T23:35:32.343Z,100.00
2023-03-19T23:37:59.869Z,100.00
2023-03-19T23:40:30.180Z,100.00
2023-03-19T23:42:58.110Z,100.00
2023-03-19T23:45:31.486Z,100.00
2023-03-19T23:47:59.983Z,100.00
2023-03-19T23:50:27.370Z,100.00
2023-03-19T23:52:55.207Z,100.00
2023-03-19T23:55:22.553Z,100.00
2023-03-19T23:57:50.673Z,100.00
